• Join FlightAware (Why Join?)
  • Login
  • US Flag 
01:04PM EDT


 

Airport Tracker/Info


-or-


 

Live Flight TrackerFlight Track Log ✈ TAM3719 ✈ 02-Sep-2013 ✈ SBBR / BSB - SBSP / CGH

Flight Track Log - Related Links

Times and Time Zones

All times are in EDT time to prevent confusion due to time zone crossing. See the TAM3719 flight status page for this flight to view local times or setup timezone preferences in your user account.

Time Position Orientation Groundspeed Altitude Reporting Facility
EDT Latitude Longitude Course Direction KTS MPH feet Rate Location/Type
04:30AM -15.8630 -47.9130 90° East 110 127  Level FlightAware
04:31AM -15.8620 -47.9000 85° East 136 157 7,140 Level FlightAware
04:31AM -15.8610 -47.8860 86° East 158 182 4,300 8,040 Climbing FlightAware
04:31AM -15.8610 -47.8710 90° East 147 169 5,100 1,980 Climbing FlightAware
04:31AM -15.8600 -47.8580 85° East 154 177 5,600 1,020 Climbing FlightAware
04:32AM -15.8670 -47.8440 117° Southeast 149 171 5,800 720 Climbing FlightAware
04:32AM -15.8860 -47.8410 171° South 215 247 6,100 780 Climbing FlightAware
04:33AM -15.9130 -47.8440 186° South 253 291 6,400 1,020 Climbing FlightAware
04:33AM -15.9380 -47.8480 189° South 281 323 6,900 1,860 Climbing FlightAware
04:33AM -15.9650 -47.8510 186° South 291 335 7,700 2,640 Climbing FlightAware
04:34AM -15.9960 -47.8540 185° South 293 337 8,800 3,000 Climbing FlightAware
04:34AM -16.0250 -47.8570 186° South 295 339 9,900 2,280 Climbing FlightAware
04:35AM -16.0690 -47.8610 185° South 317 365 10,900 1,800 Climbing FlightAware
04:35AM -16.1260 -47.8670 186° South 346 398 12,000 1,920 Climbing FlightAware
04:36AM -16.1770 -47.8720 185° South 359 413 13,100 2,280 Climbing FlightAware
04:36AM -16.2400 -47.8780 185° South 360 414 14,700 2,460 Climbing FlightAware
04:37AM -16.2990 -47.8840 186° South 365 420 16,100 1,980 Climbing FlightAware
04:37AM -16.3510 -47.8890 185° South 373 429 17,000 1,560 Climbing FlightAware
04:38AM -16.4170 -47.8950 185° South 386 444 17,900 1,680 Climbing FlightAware
04:39AM -16.4790 -47.9010 185° South 391 450 19,000 1,920 Climbing FlightAware
04:39AM -16.5480 -47.9080 186° South 396 456 20,200 1,800 Climbing FlightAware
04:40AM -16.6190 -47.9150 185° South 402 463 21,300 1,200 Climbing FlightAware
04:41AM -16.6880 -47.9220 186° South 400 460 21,900 420 Climbing FlightAware
04:41AM -16.7460 -47.9270 185° South 400 460 21,900 1,200 Level FlightAware
04:42AM -16.8330 -47.9350 185° South 400 460 23,600 1,260 Climbing FlightAware
04:43AM -16.8890 -47.9410 186° South 400 460 23,600  Level FlightAware
04:43AM -16.9450 -47.9460 185° South 400 460 23,600  Level FlightAware
04:44AM -17.0020 -47.9510 185° South 400 460 23,600  Level FlightAware
04:44AM -17.0630 -47.9560 184° South 400 460 23,600 3,660 Level FlightAware
04:45AM -17.2190 -47.8690 152° Southeast 455 524 28,100 3,720 Climbing FlightAware
04:46AM -17.2870 -47.8600 173° South 455 524 28,100 1,260 Level FlightAware
04:46AM -17.3580 -47.8500 172° South 460 529 29,500 1,440 Climbing FlightAware
04:47AM -17.4300 -47.8390 172° South 462 532 29,700 1,020 Climbing FlightAware
04:47AM -17.5190 -47.8270 173° South 469 540 30,800 1,620 Climbing FlightAware
04:48AM -17.5960 -47.8160 172° South 464 534 31,700 1,320 Climbing FlightAware
04:48AM -17.6690 -47.8060 173° South 464 534 32,400 1,260 Climbing FlightAware
04:49AM -17.7450 -47.7950 172° South 459 528 33,200 1,320 Climbing FlightAware
04:50AM -17.8190 -47.7850 173° South 458 527 34,000 1,140 Climbing FlightAware
04:50AM -17.8950 -47.7740 172° South 458 527 34,600 840 Climbing FlightAware
04:51AM -17.9660 -47.7640 172° South 461 531 35,000 840 Climbing FlightAware
04:51AM -18.0400 -47.7530 172° South 462 532 35,600 780 Climbing FlightAware
04:52AM -18.1190 -47.7420 172° South 464 534 36,000 300 Climbing FlightAware
04:53AM -18.1890 -47.7320 172° South 463 533 36,000  Level FlightAware
04:53AM -18.2650 -47.7210 172° South 462 532 36,000  Level FlightAware
04:54AM -18.3410 -47.7100 172° South 460 529 36,000  Level FlightAware
04:54AM -18.4160 -47.7000 173° South 460 529 36,000  Level FlightAware
04:55AM -18.4760 -47.6910 172° South 461 531 36,000  Level FlightAware
04:55AM -18.5590 -47.6950 183° South 445 512 36,000  Level FlightAware
04:56AM -18.6340 -47.7050 187° South 446 513 36,000  Level FlightAware
04:57AM -18.7070 -47.7150 187° South 444 511 36,000  Level FlightAware
04:57AM -18.7720 -47.7230 187° South 444 511 36,000  Level FlightAware
04:58AM -18.8460 -47.7330 187° South 444 511 36,000  Level FlightAware
04:58AM -18.9160 -47.7430 188° South 445 512 36,000  Level FlightAware
04:59AM -18.9910 -47.7530 187° South 445 512 36,000  Level FlightAware
05:00AM -19.0620 -47.7630 188° South 444 511 36,000  Level FlightAware
05:00AM -19.1340 -47.7720 187° South 443 510 36,000  Level FlightAware
05:01AM -19.2080 -47.7820 187° South 441 507 36,000  Level FlightAware
05:01AM -19.2730 -47.7910 187° South 440 506 36,000  Level FlightAware
05:02AM -19.3500 -47.8020 188° South 440 506 36,000  Level FlightAware
05:02AM -19.4150 -47.8100 187° South 441 507 36,000  Level FlightAware
05:03AM -19.4870 -47.8200 187° South 442 509 36,000  Level FlightAware
05:04AM -19.5540 -47.8290 187° South 442 509 36,000  Level FlightAware
05:04AM -19.6300 -47.8390 187° South 443 510 36,000  Level FlightAware
05:05AM -19.7020 -47.8490 187° South 442 509 36,000  Level FlightAware
05:05AM -19.7770 -47.8590 187° South 441 507 36,000  Level FlightAware
05:06AM -19.8410 -47.8680 188° South 439 505 36,000  Level FlightAware
05:07AM -19.9150 -47.8780 187° South 438 504 36,000  Level FlightAware
05:07AM -19.9870 -47.8880 187° South 436 502 36,000  Level FlightAware
05:08AM -20.0610 -47.8980 187° South 437 503 36,000  Level FlightAware
05:08AM -20.1240 -47.9070 188° South 437 503 36,000  Level FlightAware
05:09AM -20.1950 -47.9160 187° South 438 504 36,000  Level FlightAware
05:09AM -20.2580 -47.9250 188° South 439 505 36,000  Level FlightAware
05:10AM -20.3340 -47.9350 187° South 441 507 36,000  Level FlightAware
05:11AM -20.4090 -47.9450 187° South 441 507 36,000  Level FlightAware
05:11AM -20.4730 -47.9540 188° South 441 507 36,000  Level FlightAware
05:12AM -20.5700 -47.9670 187° South 440 506 36,000  Level FlightAware
05:12AM -20.6300 -47.9760 188° South 440 506 36,000  Level FlightAware
05:13AM -20.7080 -47.9860 187° South 439 505 36,000  Level FlightAware
05:14AM -20.7800 -47.9960 187° South 439 505 36,000  Level FlightAware
05:14AM -20.8460 -48.0050 187° South 438 504 36,000  Level FlightAware
05:15AM -20.9170 -48.0150 187° South 437 503 36,000  Level FlightAware
05:15AM -20.9910 -48.0250 187° South 437 503 36,000  Level FlightAware
05:16AM -21.0590 -48.0350 188° South 438 504 36,000  Level FlightAware
05:17AM -21.1310 -48.0450 187° South 437 503 36,000  Level FlightAware
05:17AM -21.1990 -48.0540 187° South 437 503 36,000  Level FlightAware
05:18AM -21.2730 -48.0640 187° South 438 504 36,000  Level FlightAware
05:18AM -21.3460 -48.0740 187° South 439 505 36,000  Level FlightAware
05:19AM -21.4180 -48.0840 187° South 438 504 36,000  Level FlightAware
05:19AM -21.4830 -48.0930 187° South 439 505 36,000  Level FlightAware
05:20AM -21.5560 -48.1030 187° South 439 505 36,000  Level FlightAware
05:21AM -21.6270 -48.1130 187° South 440 506 36,000  Level FlightAware
05:21AM -21.7010 -48.1240 188° South 441 507 36,000  Level FlightAware
05:22AM -21.7660 -48.1320 187° South 443 510 36,000  Level FlightAware
05:22AM -21.8420 -48.1230 174° South 482 555 36,000 60 Level FlightAware
05:23AM -21.9170 -48.0840 154° Southeast 493 567 36,100 -600 Climbing FlightAware
05:24AM -21.9890 -48.0460 154° Southeast 495 570 35,300 -1,980 Descending FlightAware
05:24AM -22.0570 -48.0100 154° Southeast 491 565 33,900 -2,400 Descending FlightAware
05:25AM -22.1230 -47.9750 154° Southeast 480 552 32,700 -2,220 Descending FlightAware
05:25AM -22.2000 -47.9340 154° Southeast 465 535 31,300 -2,040 Descending FlightAware
05:26AM -22.2670 -47.8980 154° Southeast 454 522 30,200 -1,980 Descending FlightAware
05:26AM -22.3240 -47.8680 154° Southeast 447 514 29,100 -2,040 Descending FlightAware
05:27AM -22.3930 -47.8310 154° Southeast 436 502 27,900 -2,040 Descending FlightAware
05:28AM -22.4580 -47.7960 154° Southeast 427 491 26,700 -1,980 Descending FlightAware
05:28AM -22.5140 -47.7660 154° Southeast 420 483 25,700 -1,980 Descending FlightAware
05:29AM -22.5660 -47.7390 154° Southeast 412 474 24,700 -1,920 Descending FlightAware
05:29AM -22.6380 -47.7000 153° Southeast 400 460 23,400 -1,800 Descending FlightAware
05:30AM -22.6870 -47.6690 150° Southeast 397 457 22,500 -1,860 Descending FlightAware
05:31AM -22.7480 -47.6120 139° Southeast 389 448 21,100 -1,860 Descending FlightAware
05:31AM -22.7960 -47.5680 140° Southeast 382 440 20,100 -1,800 Descending FlightAware
05:32AM -22.8430 -47.5240 139° Southeast 373 429 19,000 -1,860 Descending FlightAware
05:32AM -22.8840 -47.4860 140° Southeast 367 422 18,000 -1,800 Descending FlightAware
05:33AM -22.9340 -47.4390 139° Southeast 359 413 16,900 -1,740 Descending FlightAware
05:34AM -22.9710 -47.4050 140° Southeast 349 402 16,000 -1,800 Descending FlightAware
05:34AM -23.0150 -47.3640 139° Southeast 342 394 15,000 -1,680 Descending FlightAware
05:35AM -23.0630 -47.3200 140° Southeast 341 392 13,900 -1,740 Descending FlightAware
05:35AM -23.0990 -47.2870 140° Southeast 326 375 13,000 -1,680 Descending FlightAware
05:36AM -23.1390 -47.2490 139° Southeast 308 354 12,100 -1,380 Descending FlightAware
05:37AM -23.1820 -47.2090 139° Southeast 298 343 11,300 -1,140 Descending FlightAware
05:37AM -23.2140 -47.1790 139° Southeast 302 348 10,800 -960 Descending FlightAware
05:38AM -23.2510 -47.1450 140° Southeast 298 343 10,300 -900 Descending FlightAware
05:38AM -23.2750 -47.1220 139° Southeast 298 343 9,900 -840 Descending FlightAware
05:38AM -23.3080 -47.0910 139° Southeast 299 344 9,600 -600 Descending FlightAware
05:39AM -23.3240 -47.0760 139° Southeast 297 342 9,500 -420 Descending FlightAware
05:39AM -23.3410 -47.0610 141° Southeast 296 341 9,400 -540 Descending FlightAware
05:39AM -23.3620 -47.0400 137° Southeast 296 341 9,200 -600 Descending FlightAware
05:40AM -23.3870 -47.0180 141° Southeast 294 338 9,000 -360 Descending FlightAware
05:40AM -23.3990 -47.0060 137° Southeast 293 337 9,000 -480 Level FlightAware
05:40AM -23.4260 -46.9810 140° Southeast 293 337 8,700 -540 Descending FlightAware
05:41AM -23.4460 -46.9620 139° Southeast 294 338 8,600 -480 Descending FlightAware
05:41AM -23.4670 -46.9420 139° Southeast 293 337 8,400 -600 Descending FlightAware
05:41AM -23.4880 -46.9230 140° Southeast 292 336 8,200 -480 Descending FlightAware
05:42AM -23.5080 -46.9030 137° Southeast 291 335 8,100 -360 Descending FlightAware
05:42AM -23.5240 -46.8880 139° Southeast 291 335 8,000 -180 Descending FlightAware
05:42AM -23.5440 -46.8690 139° Southeast 285 328 8,000  Level FlightAware
05:43AM -23.5550 -46.8580 137° Southeast 272 313 8,000  Level FlightAware
05:43AM -23.5780 -46.8360 139° Southeast 259 298 8,000  Level FlightAware
05:43AM -23.5860 -46.8280 137° Southeast 257 296 8,000  Level FlightAware
05:44AM -23.6090 -46.8050 138° Southeast 254 292 8,000  Level FlightAware
05:44AM -23.6260 -46.7890 139° Southeast 256 295 8,000  Level FlightAware
05:44AM -23.6460 -46.7690 138° Southeast 256 295 8,000  Level FlightAware
05:45AM -23.6630 -46.7520 138° Southeast 257 296 8,000  Level FlightAware
05:45AM -23.6810 -46.7340 138° Southeast 256 295 8,000  Level FlightAware
05:45AM -23.6990 -46.7170 139° Southeast 254 292 8,000 -180 Level FlightAware
05:45AM -23.7130 -46.7020 136° Southeast 252 290 7,900 -840 Descending FlightAware
05:46AM -23.7300 -46.6860 139° Southeast 252 290 7,500 -1,320 Descending FlightAware
05:46AM -23.7460 -46.6700 138° Southeast 253 291 7,100 -1,560 Descending FlightAware
05:47AM -23.7660 -46.6510 139° Southeast 252 290 6,400 -1,740 Descending FlightAware
05:47AM -23.7790 -46.6380 138° Southeast 254 292 6,000 -1,800 Descending FlightAware
05:47AM -23.7900 -46.6240 131° Southeast 254 292 5,600 -1,380 Descending FlightAware
05:47AM -23.7920 -46.6150 104° East 252 290 5,500 -1,140 Descending FlightAware
05:47AM -23.7920 -46.6120 90° East 251 289 5,400 -660 Descending FlightAware
05:48AM -23.7870 -46.5930 74° East 238 274 5,200 -600 Descending FlightAware
05:48AM -23.7760 -46.5770 53° Northeast 225 259 5,000 -540 Descending FlightAware
05:48AM -23.7690 -46.5730 28° Northeast 214 246 5,000 -420 Level FlightAware
05:48AM -23.7610 -46.5720 North 204 235 4,900 -360 Descending FlightAware
05:49AM -23.7350 -46.5820 341° North 160 184 4,800 -480 Descending FlightAware
05:49AM -23.7220 -46.5910 328° Northwest 141 162 4,500 -780 Descending FlightAware
05:49AM -23.7070 -46.6010 329° Northwest 137 158 4,200 -780 Descending FlightAware
05:50AM -23.6990 -46.6060 330° Northwest 134 154 4,000 -720 Descending FlightAware
05:50AM -23.6900 -46.6130 325° Northwest 137 158 3,800 -720 Descending FlightAware
05:50AM -23.6810 -46.6190 329° Northwest 135 155 3,600 -780 Descending FlightAware
05:51AM -23.6670 -46.6290 327° Northwest 134 154 3,300 -780 Descending FlightAware
05:51AM -23.6560 -46.6360 330° Northwest 136 157 3,000 -780 Descending FlightAware
05:51AM -23.6450 -46.6440 326° Northwest 133 153 2,800 -480 Descending FlightAware
05:52AM -23.6400 -46.6480 324° Northwest 136 157 2,700 -360 Descending FlightAware
05:53AM -23.6150 -46.6460 61° Northeast 138 159 -1,740 Descending FlightAware
05:53AM -23.6250 -46.6590 230° Southwest 138 159  Level FlightAware